createdAt,value
2023-04-09T00:01:33.591Z,3.99
2023-04-09T00:04:00.933Z,3.95
2023-04-09T00:06:27.616Z,3.83
2023-04-09T00:08:54.283Z,3.92
2023-04-09T00:11:21.559Z,3.85
2023-04-09T00:13:48.159Z,3.82
2023-04-09T00:16:14.754Z,3.78
2023-04-09T00:18:41.728Z,3.68
2023-04-09T00:21:08.745Z,3.74
2023-04-09T00:23:36.006Z,3.80
2023-04-09T00:26:02.508Z,3.70
2023-04-09T00:28:29.004Z,3.84
2023-04-09T00:30:55.500Z,3.81
2023-04-09T00:33:21.958Z,3.71
2023-04-09T00:35:48.517Z,3.84
2023-04-09T00:38:15.480Z,3.97
2023-04-09T00:40:42.271Z,3.93
2023-04-09T00:43:08.784Z,3.82
2023-04-09T00:45:36.146Z,3.89
2023-04-09T00:48:02.766Z,4.04
2023-04-09T00:50:29.240Z,4.01
2023-04-09T00:52:55.733Z,3.87
2023-04-09T00:55:22.498Z,3.93
2023-04-09T00:57:49.263Z,3.90
2023-04-09T01:00:15.854Z,4.04
2023-04-09T01:02:43.239Z,3.92
2023-04-09T01:05:10.795Z,4.07
2023-04-09T01:07:40.359Z,4.08
2023-04-09T01:10:27.238Z,4.23
2023-04-09T01:12:53.795Z,4.36
2023-04-09T01:15:26.840Z,4.40
2023-04-09T01:18:02.077Z,4.31
2023-04-09T01:20:43.717Z,4.50
2023-04-09T01:23:10.341Z,4.34
2023-04-09T01:25:44.249Z,4.34
2023-04-09T01:28:10.899Z,4.34
2023-04-09T01:30:37.336Z,4.41
2023-04-09T01:33:05.945Z,4.50
2023-04-09T01:35:32.695Z,4.60
2023-04-09T01:38:00.758Z,4.59
2023-04-09T01:40:27.387Z,4.49
2023-04-09T01:42:54.648Z,4.43
2023-04-09T01:45:21.114Z,4.35
2023-04-09T01:47:47.905Z,4.73
2023-04-09T01:50:15.267Z,4.61
2023-04-09T01:52:41.945Z,4.45
2023-04-09T01:55:08.457Z,4.26
2023-04-09T01:57:35.111Z,4.19
2023-04-09T02:00:01.698Z,4.33
2023-04-09T02:02:37.137Z,4.32
2023-04-09T02:05:07.693Z,4.37
2023-04-09T02:07:45.844Z,4.54
2023-04-09T02:10:13.712Z,4.33
2023-04-09T02:12:42.758Z,4.26
2023-04-09T02:15:09.437Z,4.60
2023-04-09T02:17:36.086Z,4.70
2023-04-09T02:20:02.632Z,4.62
2023-04-09T02:22:29.968Z,4.76
2023-04-09T02:24:56.497Z,4.75
2023-04-09T02:27:22.965Z,4.67
2023-04-09T02:29:49.512Z,4.70
2023-04-09T02:32:16.011Z,4.55
2023-04-09T02:34:42.568Z,4.53
2023-04-09T02:37:09.082Z,4.67
2023-04-09T02:39:35.711Z,4.61
2023-04-09T02:42:02.278Z,4.66
2023-04-09T02:44:28.808Z,4.33
2023-04-09T02:46:56.507Z,4.58
2023-04-09T02:49:23.241Z,4.64
2023-04-09T02:51:49.698Z,4.64
2023-04-09T02:54:16.193Z,4.36
2023-04-09T02:56:42.656Z,4.34
2023-04-09T02:59:09.286Z,4.14
2023-04-09T03:01:36.447Z,4.30
2023-04-09T03:04:03.292Z,4.39
2023-04-09T03:06:30.045Z,4.51
2023-04-09T03:08:56.531Z,4.50
2023-04-09T03:11:23.000Z,4.44
2023-04-09T03:13:49.521Z,4.35
2023-04-09T03:16:16.052Z,4.40
2023-04-09T03:18:42.556Z,4.44
2023-04-09T03:21:09.397Z,4.49
2023-04-09T03:23:39.871Z,4.41
2023-04-09T03:26:07.993Z,4.40
2023-04-09T03:28:42.242Z,4.48
2023-04-09T03:31:08.768Z,4.52
2023-04-09T03:33:37.542Z,4.32
2023-04-09T03:36:04.164Z,4.20
2023-04-09T03:38:45.411Z,4.17
2023-04-09T03:41:23.517Z,4.48
2023-04-09T03:43:50.974Z,4.41
2023-04-09T03:46:22.430Z,4.30
2023-04-09T03:48:49.496Z,4.13
2023-04-09T03:51:16.449Z,4.22
2023-04-09T03:53:49.153Z,4.24
2023-04-09T03:56:15.818Z,4.27
2023-04-09T03:58:43.479Z,4.00
2023-04-09T04:01:12.262Z,4.04
2023-04-09T04:03:48.830Z,4.25
2023-04-09T04:06:28.443Z,4.33
2023-04-09T04:09:03.627Z,4.28
2023-04-09T04:11:43.180Z,4.15
2023-04-09T04:14:10.366Z,4.17
2023-04-09T04:16:43.149Z,4.23
2023-04-09T04:19:11.889Z,4.31
2023-04-09T04:21:44.260Z,4.10
2023-04-09T04:24:10.919Z,4.06
2023-04-09T04:26:37.424Z,4.28
2023-04-09T04:29:04.188Z,4.37
2023-04-09T04:31:53.614Z,4.39
2023-04-09T04:34:23.110Z,4.31
2023-04-09T04:36:57.720Z,4.35
2023-04-09T04:39:27.893Z,4.40
2023-04-09T04:41:59.921Z,4.17
2023-04-09T04:44:27.679Z,4.13
2023-04-09T04:47:06.001Z,4.29
2023-04-09T04:49:32.561Z,4.40
2023-04-09T04:52:01.343Z,4.42
2023-04-09T04:54:28.310Z,4.48
2023-04-09T04:56:57.281Z,4.49
2023-04-09T04:59:42.364Z,4.66
2023-04-09T05:02:11.668Z,4.68
2023-04-09T05:05:01.541Z,4.75
2023-04-09T05:07:35.019Z,4.83
2023-04-09T05:10:02.022Z,4.88
2023-04-09T05:12:34.838Z,4.74
2023-04-09T05:15:02.128Z,4.88
2023-04-09T05:17:29.749Z,4.90
2023-04-09T05:19:57.823Z,4.95
2023-04-09T05:22:32.732Z,4.89
2023-04-09T05:24:59.390Z,5.11
2023-04-09T05:27:28.210Z,5.33
2023-04-09T05:30:00.871Z,5.41
2023-04-09T05:32:27.963Z,5.27
2023-04-09T05:34:55.507Z,5.21
2023-04-09T05:37:22.234Z,5.30
2023-04-09T05:39:52.107Z,5.00
2023-04-09T05:42:18.675Z,5.26
2023-04-09T05:45:04.072Z,5.29
2023-04-09T05:47:31.269Z,5.63
2023-04-09T05:50:03.297Z,5.59
2023-04-09T05:52:30.154Z,5.48
2023-04-09T05:54:57.423Z,5.49
2023-04-09T05:57:32.530Z,5.68
2023-04-09T06:00:02.631Z,5.39
2023-04-09T06:02:29.473Z,5.44
2023-04-09T06:04:56.297Z,5.61
2023-04-09T06:07:22.894Z,5.54
2023-04-09T06:09:49.485Z,5.23
2023-04-09T06:12:16.442Z,5.37
2023-04-09T06:14:42.946Z,5.58
2023-04-09T06:17:09.423Z,5.81
2023-04-09T06:19:35.946Z,5.83
2023-04-09T06:22:02.426Z,5.61
2023-04-09T06:24:30.856Z,5.54
2023-04-09T06:26:57.304Z,5.67
2023-04-09T06:29:24.422Z,5.84
2023-04-09T06:31:51.037Z,5.57
2023-04-09T06:34:17.514Z,5.56
2023-04-09T06:36:44.529Z,5.70
2023-04-09T06:39:11.025Z,5.82
2023-04-09T06:41:37.489Z,5.97
2023-04-09T06:44:12.505Z,5.74
2023-04-09T06:46:39.092Z,5.97
2023-04-09T06:49:05.962Z,5.95
2023-04-09T06:51:32.546Z,5.87
2023-04-09T06:53:59.090Z,5.81
2023-04-09T06:56:25.770Z,5.83
2023-04-09T06:58:52.278Z,5.36
2023-04-09T07:01:19.525Z,5.90
2023-04-09T07:03:46.700Z,5.62
2023-04-09T07:06:13.243Z,5.79
2023-04-09T07:08:39.704Z,6.03
2023-04-09T07:11:06.224Z,5.98
2023-04-09T07:13:33.262Z,5.61
2023-04-09T07:16:00.456Z,5.80
2023-04-09T07:18:27.185Z,5.58
2023-04-09T07:20:53.771Z,5.61
2023-04-09T07:23:20.527Z,5.61
2023-04-09T07:25:47.268Z,5.96
2023-04-09T07:28:13.947Z,6.22
2023-04-09T07:30:40.470Z,5.55
2023-04-09T07:33:07.043Z,5.57
2023-04-09T07:35:34.752Z,5.58
2023-04-09T07:38:01.308Z,6.12
2023-04-09T07:40:27.777Z,5.71
2023-04-09T07:42:55.670Z,5.89
2023-04-09T07:45:22.165Z,6.20
2023-04-09T07:47:48.714Z,6.31
2023-04-09T07:50:15.864Z,6.57
2023-04-09T07:52:42.697Z,7.19
2023-04-09T07:55:09.266Z,6.52
2023-04-09T07:57:36.823Z,6.52
2023-04-09T08:00:03.866Z,6.54
2023-04-09T08:02:39.677Z,6.43
2023-04-09T08:05:06.690Z,6.68
2023-04-09T08:07:33.181Z,7.17
2023-04-09T08:09:59.636Z,6.52
2023-04-09T08:12:26.150Z,6.59
2023-04-09T08:14:52.681Z,6.94
2023-04-09T08:17:19.187Z,6.99
2023-04-09T08:19:45.659Z,6.68
2023-04-09T08:22:12.133Z,6.94
2023-04-09T08:24:40.208Z,7.32
2023-04-09T08:27:06.712Z,7.47
2023-04-09T08:29:34.450Z,7.51
2023-04-09T08:32:01.248Z,7.53
2023-04-09T08:34:28.104Z,7.22
2023-04-09T08:36:55.665Z,6.68
2023-04-09T08:39:22.279Z,7.45
2023-04-09T08:41:49.742Z,7.30
2023-04-09T08:44:16.707Z,7.81
2023-04-09T08:46:43.356Z,7.18
2023-04-09T08:49:10.858Z,7.17
2023-04-09T08:51:37.427Z,7.80
2023-04-09T08:54:04.669Z,7.64
2023-04-09T08:56:32.043Z,7.24
2023-04-09T08:58:58.666Z,7.08
2023-04-09T09:01:26.664Z,7.18
2023-04-09T09:03:53.253Z,7.31
2023-04-09T09:06:24.147Z,7.43
2023-04-09T09:09:05.131Z,7.33
2023-04-09T09:11:32.128Z,7.44
2023-04-09T09:14:00.290Z,7.52
2023-04-09T09:16:27.396Z,7.55
2023-04-09T09:18:55.901Z,7.37
2023-04-09T09:21:23.010Z,8.15
2023-04-09T09:23:50.650Z,8.51
2023-04-09T09:26:24.888Z,8.29
2023-04-09T09:28:52.085Z,7.65
2023-04-09T09:31:20.324Z,7.63
2023-04-09T09:33:48.226Z,7.71
2023-04-09T09:36:16.391Z,7.53
2023-04-09T09:38:57.166Z,7.59
2023-04-09T09:41:24.348Z,7.57
2023-04-09T09:43:50.997Z,7.96
2023-04-09T09:46:17.782Z,8.24
2023-04-09T09:48:46.324Z,8.35
2023-04-09T09:51:13.491Z,7.91
2023-04-09T09:53:41.739Z,7.56
2023-04-09T09:56:12.681Z,7.86
2023-04-09T09:58:45.279Z,7.68
2023-04-09T10:01:13.355Z,7.76
2023-04-09T10:03:40.399Z,8.16
2023-04-09T10:06:07.819Z,8.05
2023-04-09T10:08:34.832Z,8.61
2023-04-09T10:11:01.899Z,9.01
2023-04-09T10:13:48.617Z,9.56
2023-04-09T10:16:15.465Z,8.60
2023-04-09T10:18:42.641Z,9.46
2023-04-09T10:21:15.921Z,9.59
2023-04-09T10:23:44.298Z,9.67
2023-04-09T10:26:11.282Z,9.86
2023-04-09T10:28:38.236Z,10.45
2023-04-09T10:31:05.510Z,10.72
2023-04-09T10:33:32.182Z,10.76
2023-04-09T10:36:04.551Z,10.85
2023-04-09T10:38:34.441Z,10.34
2023-04-09T10:41:06.646Z,10.12
2023-04-09T10:43:34.719Z,9.71
2023-04-09T10:46:01.911Z,10.03
2023-04-09T10:48:32.444Z,10.28
2023-04-09T10:50:58.976Z,10.91
2023-04-09T10:53:26.138Z,10.41
2023-04-09T10:55:53.126Z,11.43
2023-04-09T10:58:19.870Z,11.19
2023-04-09T11:00:47.694Z,11.48
2023-04-09T11:03:20.825Z,11.15
2023-04-09T11:05:50.624Z,10.77
2023-04-09T11:08:17.062Z,10.32
2023-04-09T11:10:45.115Z,9.68
2023-04-09T11:13:13.420Z,10.22
2023-04-09T11:15:40.128Z,10.26
2023-04-09T11:18:09.988Z,10.31
2023-04-09T11:20:36.829Z,10.14
2023-04-09T11:23:03.373Z,10.21
2023-04-09T11:25:31.431Z,10.03
2023-04-09T11:27:58.255Z,9.37
2023-04-09T11:30:24.938Z,9.18
2023-04-09T11:32:51.548Z,9.81
2023-04-09T11:35:21.570Z,10.79
2023-04-09T11:37:50.046Z,10.56
2023-04-09T11:40:17.748Z,9.64
2023-04-09T11:42:44.966Z,9.62
2023-04-09T11:45:12.197Z,9.42
2023-04-09T11:47:42.825Z,9.75
2023-04-09T11:50:09.915Z,9.94
2023-04-09T11:52:36.688Z,10.78
2023-04-09T11:55:04.453Z,9.89
2023-04-09T11:57:41.803Z,10.19
2023-04-09T12:00:18.158Z,10.58
2023-04-09T12:02:46.602Z,12.04
2023-04-09T12:05:23.563Z,11.64
2023-04-09T12:07:56.294Z,10.22
2023-04-09T12:10:26.685Z,12.85
2023-04-09T12:12:53.184Z,12.98
2023-04-09T12:15:24.230Z,12.67
2023-04-09T12:17:54.877Z,13.53
2023-04-09T12:20:27.760Z,14.08
2023-04-09T12:22:54.436Z,12.32
2023-04-09T12:25:20.989Z,12.28
2023-04-09T12:27:47.593Z,11.85
2023-04-09T12:30:14.256Z,12.22
2023-04-09T12:32:40.907Z,11.78
2023-04-09T12:35:07.601Z,11.14
2023-04-09T12:37:34.116Z,10.28
2023-04-09T12:40:00.671Z,9.90
2023-04-09T12:42:27.202Z,9.76
2023-04-09T12:44:53.660Z,10.13
2023-04-09T12:47:20.125Z,10.25
2023-04-09T12:49:46.767Z,10.12
2023-04-09T12:52:13.230Z,9.63
2023-04-09T12:54:40.391Z,10.68
2023-04-09T12:57:06.948Z,10.14
2023-04-09T12:59:33.463Z,9.84
2023-04-09T13:02:00.394Z,9.02
2023-04-09T13:04:27.060Z,9.07
2023-04-09T13:06:53.716Z,8.74
2023-04-09T13:09:20.184Z,8.35
2023-04-09T13:11:46.676Z,7.91
2023-04-09T13:14:14.377Z,8.22
2023-04-09T13:16:40.896Z,8.40
2023-04-09T13:19:08.428Z,8.00
2023-04-09T13:21:35.304Z,7.61
2023-04-09T13:24:03.115Z,7.70
2023-04-09T13:26:30.836Z,7.67
2023-04-09T13:28:58.600Z,7.61
2023-04-09T13:31:25.325Z,7.47
2023-04-09T13:33:51.867Z,7.38
2023-04-09T13:36:18.307Z,7.42
2023-04-09T13:38:44.850Z,6.68
2023-04-09T13:41:11.438Z,6.92
2023-04-09T13:43:37.960Z,7.41
2023-04-09T13:46:04.904Z,7.24
2023-04-09T13:48:31.574Z,7.17
2023-04-09T13:50:58.085Z,7.46
2023-04-09T13:53:25.162Z,8.03
2023-04-09T13:55:51.663Z,7.91
2023-04-09T13:58:18.196Z,7.33
2023-04-09T14:00:44.720Z,7.54
2023-04-09T14:03:11.417Z,8.05
2023-04-09T14:05:37.954Z,8.17
2023-04-09T14:08:04.456Z,7.74
2023-04-09T14:10:31.008Z,7.97
2023-04-09T14:12:58.190Z,8.17
2023-04-09T14:15:24.827Z,8.50
2023-04-09T14:17:51.652Z,8.59
2023-04-09T14:20:19.975Z,8.23
2023-04-09T14:22:49.319Z,8.34
2023-04-09T14:25:15.949Z,8.58
2023-04-09T14:27:42.414Z,9.24
2023-04-09T14:30:12.747Z,8.44
2023-04-09T14:32:39.410Z,8.11
2023-04-09T14:35:06.036Z,8.42
2023-04-09T14:37:32.597Z,8.36
2023-04-09T14:39:59.117Z,8.11
2023-04-09T14:42:25.663Z,8.26
2023-04-09T14:44:52.115Z,8.25
2023-04-09T14:47:18.632Z,8.19
2023-04-09T14:49:45.184Z,8.13
2023-04-09T14:52:11.663Z,8.09
2023-04-09T14:54:38.244Z,7.85
2023-04-09T14:57:04.764Z,8.11
2023-04-09T14:59:31.222Z,8.42
2023-04-09T15:01:57.728Z,8.22
2023-04-09T15:04:24.465Z,7.94
2023-04-09T15:06:51.318Z,8.21
2023-04-09T15:09:17.824Z,9.30
2023-04-09T15:11:44.320Z,8.76
2023-04-09T15:14:10.768Z,8.81
2023-04-09T15:16:37.562Z,8.85
2023-04-09T15:19:04.459Z,8.79
2023-04-09T15:21:31.654Z,9.76
2023-04-09T15:23:59.124Z,9.06
2023-04-09T15:26:27.118Z,8.97
2023-04-09T15:29:06.441Z,8.86
2023-04-09T15:31:33.174Z,8.41
2023-04-09T15:34:00.049Z,8.57
2023-04-09T15:36:27.068Z,8.58
2023-04-09T15:38:53.918Z,8.62
2023-04-09T15:41:23.752Z,9.29
2023-04-09T15:43:50.935Z,9.17
2023-04-09T15:46:18.293Z,8.81
2023-04-09T15:48:45.314Z,8.99
2023-04-09T15:51:11.893Z,8.52
2023-04-09T15:53:38.337Z,8.41
2023-04-09T15:56:05.455Z,8.31
2023-04-09T15:58:32.318Z,8.19
2023-04-09T16:00:58.898Z,8.09
2023-04-09T16:03:25.831Z,8.36
2023-04-09T16:05:52.338Z,8.27
2023-04-09T16:08:18.775Z,8.12
2023-04-09T16:10:45.619Z,8.30
2023-04-09T16:13:12.122Z,8.45
2023-04-09T16:15:38.716Z,8.33
2023-04-09T16:18:06.208Z,8.00
2023-04-09T16:20:32.703Z,7.87
2023-04-09T16:22:59.225Z,7.86
2023-04-09T16:25:25.867Z,7.68
2023-04-09T16:27:52.337Z,7.98
2023-04-09T16:30:18.807Z,8.11
2023-04-09T16:32:45.333Z,7.80
2023-04-09T16:35:11.817Z,7.78
2023-04-09T16:37:38.817Z,7.71
2023-04-09T16:40:05.561Z,7.68
2023-04-09T16:42:32.826Z,7.65
2023-04-09T16:44:59.335Z,7.63
2023-04-09T16:47:25.961Z,8.04
2023-04-09T16:49:52.529Z,7.84
2023-04-09T16:52:19.056Z,7.65
2023-04-09T16:54:45.917Z,7.59
2023-04-09T16:57:12.740Z,7.33
2023-04-09T16:59:40.782Z,7.14
2023-04-09T17:02:07.741Z,7.47
2023-04-09T17:04:34.797Z,7.35
2023-04-09T17:07:01.264Z,7.24
2023-04-09T17:09:28.275Z,7.16
2023-04-09T17:11:55.407Z,7.32
2023-04-09T17:14:22.076Z,7.25
2023-04-09T17:16:48.670Z,7.39
2023-04-09T17:19:15.406Z,7.64
2023-04-09T17:21:42.062Z,7.54
2023-04-09T17:24:08.521Z,7.57
2023-04-09T17:26:35.176Z,7.83
2023-04-09T17:29:02.145Z,7.65
2023-04-09T17:31:28.669Z,7.64
2023-04-09T17:33:55.220Z,7.70
2023-04-09T17:36:22.883Z,7.48
2023-04-09T17:38:51.901Z,7.58
2023-04-09T17:41:18.741Z,7.50
2023-04-09T17:43:46.086Z,7.30
2023-04-09T17:46:12.790Z,7.32
2023-04-09T17:48:39.553Z,7.27
2023-04-09T17:51:06.421Z,7.42
2023-04-09T17:53:32.968Z,7.42
2023-04-09T17:55:59.456Z,7.35
2023-04-09T17:58:26.612Z,7.14
2023-04-09T18:00:53.851Z,7.04
2023-04-09T18:03:21.023Z,7.12
2023-04-09T18:05:47.868Z,7.13
2023-04-09T18:08:14.312Z,7.15
2023-04-09T18:10:40.860Z,7.15
2023-04-09T18:13:07.317Z,6.96
2023-04-09T18:15:33.850Z,6.69
2023-04-09T18:18:00.495Z,6.97
2023-04-09T18:20:27.292Z,7.00
2023-04-09T18:22:55.321Z,6.85
2023-04-09T18:25:23.309Z,7.02
2023-04-09T18:27:49.954Z,6.91
2023-04-09T18:30:16.447Z,6.96
2023-04-09T18:32:43.437Z,7.21
2023-04-09T18:35:10.315Z,7.12
2023-04-09T18:37:38.113Z,6.84
2023-04-09T18:40:04.815Z,6.70
2023-04-09T18:42:31.250Z,6.82
2023-04-09T18:44:57.755Z,6.86
2023-04-09T18:47:25.902Z,7.03
2023-04-09T18:49:52.428Z,7.00
2023-04-09T18:52:18.923Z,6.87
2023-04-09T18:54:45.377Z,6.72
2023-04-09T18:57:11.874Z,6.85
2023-04-09T18:59:40.000Z,6.90
2023-04-09T19:02:06.846Z,6.68
2023-04-09T19:04:39.610Z,6.88
2023-04-09T19:07:06.630Z,6.80
2023-04-09T19:09:33.571Z,6.77
2023-04-09T19:12:01.578Z,6.65
2023-04-09T19:14:28.104Z,7.11
2023-04-09T19:16:54.728Z,7.04
2023-04-09T19:19:21.314Z,7.07
2023-04-09T19:21:48.003Z,6.67
2023-04-09T19:24:14.456Z,6.71
2023-04-09T19:26:40.970Z,6.90
2023-04-09T19:29:07.744Z,7.28
2023-04-09T19:31:34.229Z,7.59
2023-04-09T19:34:00.863Z,6.99
2023-04-09T19:36:27.359Z,6.81
2023-04-09T19:38:54.031Z,6.77
2023-04-09T19:41:20.750Z,6.58
2023-04-09T19:43:47.297Z,6.68
2023-04-09T19:46:13.821Z,6.60
2023-04-09T19:48:40.862Z,6.76
2023-04-09T19:51:07.382Z,6.50
2023-04-09T19:53:36.210Z,6.54
2023-04-09T19:56:03.165Z,6.41
2023-04-09T19:58:29.934Z,6.52
2023-04-09T20:00:56.508Z,6.61
2023-04-09T20:03:23.094Z,6.57
2023-04-09T20:05:49.741Z,6.56
2023-04-09T20:08:16.629Z,6.53
2023-04-09T20:10:46.314Z,6.66
2023-04-09T20:13:13.014Z,6.50
2023-04-09T20:15:39.489Z,6.59
2023-04-09T20:18:06.201Z,6.51
2023-04-09T20:20:32.831Z,6.55
2023-04-09T20:22:59.587Z,6.50
2023-04-09T20:25:26.372Z,6.47
2023-04-09T20:27:53.808Z,6.43
2023-04-09T20:30:20.565Z,6.55
2023-04-09T20:32:48.950Z,6.40
2023-04-09T20:35:15.905Z,6.50
2023-04-09T20:37:42.462Z,6.40
2023-04-09T20:40:09.116Z,6.41
2023-04-09T20:42:35.625Z,6.53
2023-04-09T20:45:02.252Z,6.52
2023-04-09T20:47:28.924Z,6.66
2023-04-09T20:49:59.679Z,6.73
2023-04-09T20:52:28.473Z,6.34
2023-04-09T20:54:55.347Z,6.47
2023-04-09T20:57:22.160Z,6.24
2023-04-09T20:59:50.041Z,6.18
2023-04-09T21:02:17.001Z,6.52
2023-04-09T21:04:43.506Z,6.50
2023-04-09T21:07:10.392Z,6.38
2023-04-09T21:09:36.888Z,6.49
2023-04-09T21:12:03.432Z,6.74
2023-04-09T21:14:29.948Z,6.59
2023-04-09T21:16:56.476Z,6.70
2023-04-09T21:19:23.016Z,6.71
2023-04-09T21:21:49.789Z,6.67
2023-04-09T21:24:16.411Z,6.44
2023-04-09T21:26:49.941Z,6.32
2023-04-09T21:29:17.310Z,6.64
2023-04-09T21:31:43.904Z,6.46
2023-04-09T21:34:10.477Z,6.47
2023-04-09T21:36:39.217Z,6.33
2023-04-09T21:39:05.854Z,6.19
2023-04-09T21:41:32.325Z,6.61
2023-04-09T21:44:03.340Z,6.49
2023-04-09T21:46:29.861Z,6.29
2023-04-09T21:48:56.330Z,6.26
2023-04-09T21:51:22.818Z,6.23
2023-04-09T21:53:49.685Z,6.18
2023-04-09T21:56:16.133Z,5.96
2023-04-09T21:58:42.667Z,6.18
2023-04-09T22:01:18.802Z,6.17
2023-04-09T22:03:53.021Z,6.06
2023-04-09T22:06:19.724Z,5.85
2023-04-09T22:08:55.495Z,5.83
2023-04-09T22:11:28.077Z,5.96
2023-04-09T22:13:58.141Z,5.85
2023-04-09T22:16:25.220Z,5.99
2023-04-09T22:18:52.598Z,5.87
2023-04-09T22:21:19.306Z,5.91
2023-04-09T22:23:45.795Z,6.05
2023-04-09T22:26:12.362Z,6.02
2023-04-09T22:28:39.372Z,5.84
2023-04-09T22:31:06.115Z,5.94
2023-04-09T22:33:32.729Z,5.98
2023-04-09T22:35:59.506Z,5.72
2023-04-09T22:38:26.215Z,5.58
2023-04-09T22:40:52.690Z,5.74
2023-04-09T22:43:19.687Z,5.72
2023-04-09T22:45:56.127Z,5.55
2023-04-09T22:48:23.145Z,5.71
2023-04-09T22:50:50.065Z,5.70
2023-04-09T22:53:19.338Z,5.89
2023-04-09T22:55:52.595Z,5.69
2023-04-09T22:58:19.225Z,5.68
2023-04-09T23:00:47.058Z,5.82
2023-04-09T23:03:13.679Z,5.97
2023-04-09T23:05:40.277Z,6.02
2023-04-09T23:08:06.825Z,6.15
2023-04-09T23:10:33.950Z,6.06
2023-04-09T23:13:00.476Z,6.07
2023-04-09T23:15:27.147Z,6.13
2023-04-09T23:17:53.963Z,5.96
2023-04-09T23:20:20.569Z,5.99
2023-04-09T23:22:50.211Z,5.82
2023-04-09T23:25:16.941Z,6.03
2023-04-09T23:27:43.611Z,5.97
2023-04-09T23:30:10.497Z,5.87
2023-04-09T23:32:37.220Z,5.92
2023-04-09T23:35:04.159Z,5.94
2023-04-09T23:37:30.649Z,6.00
2023-04-09T23:39:57.216Z,5.80
2023-04-09T23:42:23.991Z,5.98
2023-04-09T23:44:50.516Z,5.89
2023-04-09T23:47:17.445Z,5.94
2023-04-09T23:49:44.948Z,5.91
2023-04-09T23:52:11.499Z,6.09
2023-04-09T23:54:37.962Z,5.80
2023-04-09T23:57:04.459Z,5.71
2023-04-09T23:59:33.901Z,5.64
